This is the latest recevied weather packets stored in our database for station/object G0TQM-11. If no packets are shown the sender has not sent any weather packets the latest 10 day(s).
| Time | Temp. | Humidity | Pressure | Rain* | Wind** | Luminosity | Snow |
|---|---|---|---|---|---|---|---|
| 1777605896 | 8.89° C | 39% | 1015.9 hPa | - | - | - | - |
| 1777604696 | 8.89° C | 40% | 1016.1 hPa | - | - | - | - |
| 1777603496 | 8.89° C | 39% | 1016.4 hPa | - | - | - | - |
| 1777602296 | 9.44° C | 40% | 1016.4 hPa | - | - | - | - |
| 1777601096 | 9.44° C | 39% | 1016.5 hPa | - | - | - | - |
| 1777599895 | 10° C | 39% | 1016.6 hPa | - | - | - | - |
| 1777598695 | 10.56° C | 39% | 1016.9 hPa | - | - | - | - |
| 1777597495 | 10.56° C | 39% | 1017 hPa | - | - | - | - |
| 1777596295 | 11.11° C | 39% | 1017.1 hPa | - | - | - | - |
| 1777595095 | 11.67° C | 38% | 1017.1 hPa | - | - | - | - |
| 1777593895 | 12.22° C | 38% | 1017.1 hPa | - | - | - | - |
| 1777592695 | 12.22° C | 38% | 1017.1 hPa | - | - | - | - |
| 1777591494 | 12.78° C | 38% | 1017.1 hPa | - | - | - | - |
| 1777590294 | 13.33° C | 37% | 1017.2 hPa | - | - | - | - |
| 1777589094 | 13.89° C | 37% | 1017.1 hPa | - | - | - | - |
| 1777587894 | 15° C | 37% | 1017.2 hPa | - | - | - | - |
| 1777586694 | 15.56° C | 36% | 1017.2 hPa | - | - | - | - |
| 1777585494 | 16.11° C | 35% | 1017.1 hPa | - | - | - | - |
| 1777584294 | 17.22° C | 34% | 1017.1 hPa | - | - | - | - |
| 1777583093 | 18.33° C | 33% | 1016.7 hPa | - | - | - | - |
| 1777581893 | 19.44° C | 33% | 1016.4 hPa | - | - | - | - |
| 1777580693 | 20.56° C | 32% | 1016.4 hPa | - | - | - | - |
| 1777579493 | 22.22° C | 31% | 1016.3 hPa | - | - | - | - |
| 1777578293 | 24.44° C | 30% | 1016.2 hPa | - | - | - | - |
| 1777577093 | 26.67° C | 27% | 1016 hPa | - | - | - | - |
* Rain since midnight (hover to see other rain measurements)
** Current wind speed in m/s (hover to see current wind gust speed)